Time;durP1;ratioP1;P1;durP2;ratioP2;P2;SDS_P1;SDS_P2;PMS_P1;PMS_P2;Temp;Humidity;BMP_temperature;BMP_pressure;BME280_temperature;BME280_humidity;BME280_pressure;Samples;Min_cycle;Max_cycle;Signal;HPM_P1;HPM_P2
2021/05/27 00:00:32;;;;;;;0.13;0.13;;;15.00;90.20;;;;;;4176980;28;20416;-45
2021/05/27 00:02:55;;;;;;;0.00;0.00;;;15.00;90.20;;;;;;4177094;28;20053;-45
2021/05/27 00:05:17;;;;;;;0.00;0.00;;;15.00;90.20;;;;;;4177065;28;20053;-46
2021/05/27 00:07:39;;;;;;;0.00;0.00;;;15.00;90.20;;;;;;4160485;28;20061;-49
2021/05/27 00:10:01;;;;;;;0.00;0.00;;;15.00;90.20;;;;;;4161081;28;20056;-48
2021/05/27 00:12:22;;;;;;;0.00;0.00;;;14.90;90.20;;;;;;4175994;28;20053;-49
2021/05/27 00:14:44;;;;;;;0.30;0.30;;;14.90;90.60;;;;;;4177283;28;20547;-49
2021/05/27 00:17:06;;;;;;;0.10;0.10;;;15.00;90.20;;;;;;4176945;28;20055;-46
2021/05/27 00:19:27;;;;;;;0.00;0.00;;;15.00;90.20;;;;;;4177113;28;20126;-46
2021/05/27 00:21:49;;;;;;;0.80;0.70;;;14.90;90.20;;;;;;4162973;28;20049;-45
2021/05/27 00:24:12;;;;;;;0.00;0.00;;;14.90;90.20;;;;;;4160587;28;20052;-46
2021/05/27 00:26:34;;;;;;;0.00;0.00;;;14.90;90.20;;;;;;4160607;28;20053;-44
2021/05/27 00:28:56;;;;;;;0.00;0.00;;;15.00;90.20;;;;;;4175169;28;20053;-46
2021/05/27 00:31:18;;;;;;;0.00;0.00;;;14.90;90.20;;;;;;4176228;28;20068;-48
2021/05/27 00:33:39;;;;;;;0.00;0.00;;;14.90;90.20;;;;;;4176885;28;20803;-44
2021/05/27 00:36:01;;;;;;;0.00;0.00;;;14.90;90.20;;;;;;4168132;28;20049;-47
2021/05/27 00:38:23;;;;;;;0.00;0.00;;;14.90;90.20;;;;;;4160537;28;20041;-46
2021/05/27 00:40:46;;;;;;;0.00;0.00;;;14.90;90.20;;;;;;4164625;28;20060;-46
2021/05/27 00:43:07;;;;;;;0.25;0.25;;;14.90;90.30;;;;;;4176714;28;20490;-45
2021/05/27 00:45:29;;;;;;;0.00;0.00;;;14.90;90.30;;;;;;4176675;28;20057;-45
2021/05/27 00:47:51;;;;;;;1.98;1.08;;;14.90;90.30;;;;;;4168096;28;20048;-47
2021/05/27 00:50:21;;;;;;;0.00;0.00;;;14.90;90.30;;;;;;4158868;28;20060;-46
2021/05/27 00:52:43;;;;;;;0.15;0.15;;;14.90;90.30;;;;;;4157945;28;20084;-46
2021/05/27 00:55:07;;;;;;;0.00;0.00;;;14.90;90.30;;;;;;4164742;28;20712;-46
2021/05/27 00:57:35;;;;;;;0.00;0.00;;;14.90;90.30;;;;;;4176733;28;20476;-44
2021/05/27 00:59:58;;;;;;;0.00;0.00;;;14.90;90.30;;;;;;4175917;28;20128;-46
2021/05/27 01:02:20;;;;;;;0.00;0.00;;;14.90;90.70;;;;;;4159843;28;20128;-48
2021/05/27 01:04:41;;;;;;;0.00;0.00;;;14.90;90.50;;;;;;4160971;28;20140;-47
2021/05/27 01:07:16;;;;;;;0.00;0.00;;;14.90;90.40;;;;;;4164432;28;20137;-45
2021/05/27 01:09:37;;;;;;;0.35;0.35;;;14.90;90.30;;;;;;4175825;28;20047;-46
2021/05/27 01:11:58;;;;;;;;;;;14.90;90.40;;;;;;4176472;28;20049;-48
2021/05/27 01:16:59;;;;;;;3.10;1.75;;;14.90;90.30;;;;;;4175518;28;20060;-45
2021/05/27 01:19:21;;;;;;;0.10;0.10;;;14.90;90.40;;;;;;4174663;28;20503;-46
2021/05/27 01:21:45;;;;;;;0.00;0.00;;;14.90;90.40;;;;;;4158384;28;20416;-49
2021/05/27 01:24:09;;;;;;;0.47;0.47;;;14.90;90.40;;;;;;4158195;28;20060;-45
2021/05/27 01:26:32;;;;;;;0.00;0.00;;;14.80;90.30;;;;;;4142927;28;20485;-47
2021/05/27 01:28:54;;;;;;;0.00;0.00;;;14.90;90.30;;;;;;4143570;28;20496;-45
2021/05/27 01:31:15;;;;;;;0.00;0.00;;;14.80;90.30;;;;;;4147459;28;20100;-48
2021/05/27 01:33:37;;;;;;;0.00;0.00;;;14.90;90.40;;;;;;4159564;28;20510;-46
2021/05/27 01:36:02;;;;;;;0.08;0.08;;;14.90;90.40;;;;;;4170306;28;20053;-45
2021/05/27 01:38:26;;;;;;;0.00;0.00;;;14.80;90.30;;;;;;4156234;28;20056;-47
2021/05/27 01:40:49;;;;;;;0.00;0.00;;;14.90;90.40;;;;;;4170259;28;20060;-45
2021/05/27 01:43:12;;;;;;;0.00;0.00;;;14.90;90.40;;;;;;4175421;28;20048;-44
2021/05/27 01:45:35;;;;;;;0.00;0.00;;;14.80;90.40;;;;;;4157691;28;20050;-46
2021/05/27 01:47:56;;;;;;;0.00;0.00;;;14.90;90.40;;;;;;4159197;28;20051;-46
2021/05/27 01:50:20;;;;;;;0.00;0.00;;;14.80;90.40;;;;;;4159112;28;20484;-45
2021/05/27 01:52:45;;;;;;;0.00;0.00;;;14.80;90.30;;;;;;4158706;28;20451;-47
2021/05/27 01:55:09;;;;;;;0.00;0.00;;;14.80;90.40;;;;;;4157509;28;20495;-48
2021/05/27 01:57:31;;;;;;;0.00;0.00;;;14.80;90.40;;;;;;4159506;28;20500;-44
2021/05/27 01:59:54;;;;;;;0.10;0.10;;;14.80;90.40;;;;;;4169433;28;20087;-45
2021/05/27 02:02:17;;;;;;;0.10;0.10;;;14.90;90.40;;;;;;4174049;28;20068;-46
2021/05/27 02:04:39;;;;;;;0.10;0.10;;;14.80;90.40;;;;;;4173534;28;20057;-45
2021/05/27 02:07:09;;;;;;;0.00;0.00;;;14.80;90.40;;;;;;4173887;28;20558;-46
2021/05/27 02:09:31;;;;;;;0.00;0.00;;;14.80;90.40;;;;;;4172339;28;20450;-46
2021/05/27 02:11:57;;;;;;;0.00;0.00;;;14.80;90.40;;;;;;4172259;28;20045;-48
2021/05/27 02:14:20;;;;;;;0.00;0.00;;;14.80;90.40;;;;;;4170738;28;20593;-47
2021/05/27 02:16:43;;;;;;;0.20;0.20;;;14.80;90.40;;;;;;4162997;28;20418;-47
2021/05/27 02:19:06;;;;;;;0.00;0.00;;;14.80;90.40;;;;;;4173456;28;20060;-45
2021/05/27 02:21:30;;;;;;;0.00;0.00;;;14.80;90.40;;;;;;4140874;28;20071;-47
2021/05/27 02:23:54;;;;;;;0.00;0.00;;;14.80;90.40;;;;;;4149139;28;20107;-46
2021/05/27 02:26:18;;;;;;;0.00;0.00;;;14.80;90.40;;;;;;4156542;28;20055;-44
2021/05/27 02:28:46;;;;;;;0.00;0.00;;;14.80;90.40;;;;;;4158618;28;20423;-47
2021/05/27 02:31:08;;;;;;;0.00;0.00;;;14.80;90.40;;;;;;4158729;28;20164;-48
2021/05/27 02:33:37;;;;;;;0.00;0.00;;;14.80;90.40;;;;;;4156580;28;20522;-50
2021/05/27 02:36:12;;;;;;;0.00;0.00;;;14.80;90.40;;;;;;4156571;28;20053;-48
2021/05/27 02:38:34;;;;;;;0.22;0.22;;;14.80;90.40;;;;;;4174972;28;20673;-45
2021/05/27 02:40:56;;;;;;;0.00;0.00;;;14.80;90.40;;;;;;4175066;28;20162;-47
2021/05/27 02:43:20;;;;;;;0.00;0.00;;;14.80;90.40;;;;;;4172602;28;20045;-46
2021/05/27 02:45:43;;;;;;;0.00;0.00;;;14.80;90.40;;;;;;4173351;28;20142;-50
2021/05/27 02:48:06;;;;;;;0.25;0.25;;;14.80;90.40;;;;;;4173333;28;20143;-45
2021/05/27 02:50:32;;;;;;;0.00;0.00;;;14.80;90.40;;;;;;4170524;28;20103;-48
2021/05/27 02:53:00;;;;;;;3.20;0.45;;;14.80;90.40;;;;;;4172920;28;20087;-46
2021/05/27 02:55:25;;;;;;;0.10;0.10;;;14.70;90.30;;;;;;4173486;28;20072;-46
2021/05/27 02:57:47;;;;;;;0.00;0.00;;;14.70;90.40;;;;;;4159432;28;20047;-44
2021/05/27 03:00:10;;;;;;;0.00;0.00;;;14.70;90.40;;;;;;4156858;28;20079;-47
2021/05/27 03:02:54;;;;;;;0.00;0.00;;;14.80;90.40;;;;;;4165596;28;20099;-44
2021/05/27 03:05:16;;;;;;;0.13;0.13;;;14.70;90.40;;;;;;4166027;28;20049;-45
2021/05/27 03:07:38;;;;;;;0.00;0.00;;;14.80;90.40;;;;;;4158120;28;20042;-47
2021/05/27 03:10:00;;;;;;;0.00;0.00;;;14.80;90.40;;;;;;4165998;28;20774;-46
2021/05/27 03:12:22;;;;;;;0.00;0.00;;;14.70;90.40;;;;;;4172906;28;20072;-46
2021/05/27 03:14:45;;;;;;;0.15;0.15;;;14.70;90.80;;;;;;4172874;28;20123;-45
2021/05/27 03:17:11;;;;;;;0.00;0.00;;;14.70;90.40;;;;;;4173344;28;20048;-47
2021/05/27 03:19:34;;;;;;;0.10;0.10;;;14.70;90.40;;;;;;4170056;28;20095;-46
2021/05/27 03:21:56;;;;;;;0.00;0.00;;;14.70;90.40;;;;;;4156491;28;20053;-46
2021/05/27 03:24:17;;;;;;;;;;;14.70;90.50;;;;;;4156989;28;20552;-50
2021/05/27 03:26:39;;;;;;;0.10;0.10;;;14.70;90.50;;;;;;4164802;28;19931;-46
2021/05/27 03:29:01;;;;;;;0.00;0.00;;;14.70;90.40;;;;;;4174185;28;20511;-46
2021/05/27 03:31:23;;;;;;;0.00;0.00;;;14.70;90.50;;;;;;4174572;28;20056;-45
2021/05/27 03:33:48;;;;;;;0.05;0.05;;;14.70;90.50;;;;;;4174249;28;20130;-46
2021/05/27 03:36:11;;;;;;;0.00;0.00;;;14.70;90.50;;;;;;4172936;28;20067;-48
2021/05/27 03:38:37;;;;;;;0.00;0.00;;;14.70;90.50;;;;;;4156437;28;20137;-49
2021/05/27 03:40:59;;;;;;;0.00;0.00;;;14.70;90.50;;;;;;4158156;28;20451;-44
2021/05/27 03:43:21;;;;;;;0.00;0.00;;;14.70;90.50;;;;;;4157867;28;20140;-46
2021/05/27 03:45:44;;;;;;;0.00;0.00;;;14.70;90.50;;;;;;4157866;28;20049;-45
2021/05/27 03:48:10;;;;;;;0.00;0.00;;;14.70;90.50;;;;;;4170821;28;20115;-45
2021/05/27 03:50:32;;;;;;;0.95;0.95;;;14.70;90.50;;;;;;4172562;28;20076;-48
2021/05/27 03:52:56;;;;;;;0.40;0.40;;;14.70;90.50;;;;;;4171586;28;20057;-45
2021/05/27 03:55:19;;;;;;;0.00;0.00;;;14.70;90.50;;;;;;4174108;28;20055;-45
2021/05/27 03:57:41;;;;;;;0.00;0.00;;;14.70;90.50;;;;;;4161743;28;20064;-45
2021/05/27 04:02:50;;;;;;;0.10;0.10;;;14.70;90.50;;;;;;4159025;28;20577;-45
2021/05/27 04:08:06;;;;;;;0.00;0.00;;;14.70;90.50;;;;;;4177250;28;20049;-44
2021/05/27 04:10:28;;;;;;;0.00;0.00;;;14.70;90.50;;;;;;4160358;28;20073;-45
2021/05/27 04:12:50;;;;;;;0.22;0.22;;;14.70;90.50;;;;;;4160697;28;20049;-48
2021/05/27 04:15:23;;;;;;;0.00;0.00;;;14.70;90.60;;;;;;4159357;28;20144;-47
2021/05/27 04:17:45;;;;;;;1.13;0.60;;;14.70;90.60;;;;;;4160435;28;20123;-46
2021/05/27 04:20:08;;;;;;;0.00;0.00;;;14.70;90.60;;;;;;4169121;28;20462;-45
2021/05/27 04:22:30;;;;;;;0.00;0.00;;;14.70;90.60;;;;;;4176841;28;20457;-45
2021/05/27 04:24:52;;;;;;;0.00;0.00;;;14.70;90.60;;;;;;4176155;28;20052;-46
2021/05/27 04:27:14;;;;;;;0.00;0.00;;;14.70;90.60;;;;;;4176763;28;20529;-49
2021/05/27 04:29:37;;;;;;;0.00;0.00;;;14.70;90.60;;;;;;4172597;28;20051;-45
2021/05/27 04:31:59;;;;;;;0.00;0.00;;;14.70;90.60;;;;;;4160337;28;20053;-45
2021/05/27 04:34:21;;;;;;;0.00;0.00;;;14.70;90.60;;;;;;4160147;28;20134;-46
2021/05/27 04:36:42;;;;;;;0.47;0.47;;;14.70;90.60;;;;;;4168113;28;20131;-47
2021/05/27 04:39:04;;;;;;;;;;;14.70;90.60;;;;;;4177209;28;20061;-47
2021/05/27 04:41:30;;;;;;;0.00;0.00;;;14.70;90.70;;;;;;4160502;28;19925;-45
2021/05/27 04:43:53;;;;;;;0.00;0.00;;;14.70;90.60;;;;;;4159729;28;20056;-46
2021/05/27 04:46:15;;;;;;;0.00;0.00;;;14.70;90.60;;;;;;4160149;28;20064;-47
2021/05/27 04:48:37;;;;;;;0.77;0.77;;;14.70;90.70;;;;;;4169646;28;20148;-45
2021/05/27 04:50:59;;;;;;;0.00;0.00;;;14.70;90.70;;;;;;4176455;28;20047;-45
2021/05/27 04:53:22;;;;;;;0.00;0.00;;;14.60;90.70;;;;;;4176294;28;20441;-45
2021/05/27 04:55:44;;;;;;;0.00;0.00;;;14.70;90.70;;;;;;4174287;28;20136;-45
2021/05/27 04:58:07;;;;;;;0.00;0.00;;;14.70;90.70;;;;;;4160411;28;20115;-45
2021/05/27 05:00:28;;;;;;;0.00;0.00;;;14.60;90.70;;;;;;4159972;28;20079;-46
2021/05/27 05:02:51;;;;;;;0.00;0.00;;;14.70;90.70;;;;;;4159815;28;20060;-45
2021/05/27 05:05:14;;;;;;;0.00;0.00;;;14.60;90.70;;;;;;4160799;28;20037;-45
2021/05/27 05:07:36;;;;;;;0.00;0.00;;;14.60;90.70;;;;;;4159690;28;20076;-47
2021/05/27 05:09:57;;;;;;;0.00;0.00;;;14.60;90.70;;;;;;4143540;28;20050;-46
2021/05/27 05:12:19;;;;;;;0.00;0.00;;;14.60;90.70;;;;;;4159367;28;20073;-46
2021/05/27 05:14:42;;;;;;;0.85;0.85;;;14.70;90.70;;;;;;4163287;28;20045;-45
2021/05/27 05:17:04;;;;;;;0.00;0.00;;;14.60;90.70;;;;;;4173518;28;20099;-44
2021/05/27 05:19:25;;;;;;;0.00;0.00;;;14.60;90.70;;;;;;4175695;28;20056;-45
2021/05/27 05:21:47;;;;;;;1.27;0.35;;;14.60;90.90;;;;;;4173311;28;20495;-45
2021/05/27 05:24:09;;;;;;;0.00;0.00;;;14.60;91.00;;;;;;4173268;28;20513;-47
2021/05/27 05:26:31;;;;;;;0.00;0.00;;;14.60;91.10;;;;;;4152003;28;20045;-44
2021/05/27 05:28:53;;;;;;;0.00;0.00;;;14.70;91.10;;;;;;4158070;28;20052;-46
2021/05/27 05:31:15;;;;;;;0.00;0.00;;;14.70;91.20;;;;;;4159374;28;20500;-45
2021/05/27 05:33:36;;;;;;;0.00;0.00;;;14.70;91.10;;;;;;4159019;28;20051;-44
2021/05/27 05:35:58;;;;;;;;;;;14.70;91.50;;;;;;4144849;28;20046;-46
2021/05/27 05:38:19;;;;;;;0.35;0.35;;;14.80;91.40;;;;;;4148823;28;19925;-45
2021/05/27 05:40:41;;;;;;;0.00;0.00;;;14.70;91.10;;;;;;4144110;28;20513;-45
2021/05/27 05:43:03;;;;;;;0.00;0.00;;;14.80;91.10;;;;;;4146428;28;20518;-45
2021/05/27 05:45:26;;;;;;;0.00;0.00;;;15.20;90.40;;;;;;4157971;28;20136;-46
2021/05/27 05:47:51;;;;;;;0.00;0.00;;;15.70;89.30;;;;;;4175339;28;20057;-46
2021/05/27 05:50:14;;;;;;;0.00;0.00;;;16.00;87.80;;;;;;4159038;28;20049;-45
2021/05/27 05:52:36;;;;;;;0.80;0.80;;;16.40;86.30;;;;;;4158922;28;20053;-48
2021/05/27 05:54:58;;;;;;;0.00;0.00;;;17.00;84.10;;;;;;4143986;28;20108;-46
2021/05/27 05:57:20;;;;;;;1.63;0.77;;;17.50;81.80;;;;;;4159024;28;20060;-47
2021/05/27 05:59:41;;;;;;;0.00;0.00;;;18.00;79.60;;;;;;4159080;28;20487;-45
2021/05/27 06:02:04;;;;;;;0.00;0.00;;;18.50;77.50;;;;;;4159044;28;20045;-45
2021/05/27 06:04:30;;;;;;;0.00;0.00;;;18.80;76.20;;;;;;4166453;28;20136;-45
2021/05/27 06:07:06;;;;;;;0.00;0.00;;;18.90;75.50;;;;;;4142320;28;20081;-45
2021/05/27 06:09:28;;;;;;;0.00;0.00;;;19.00;74.90;;;;;;4158923;28;20053;-46
2021/05/27 06:11:49;;;;;;;;;;;19.00;75.00;;;;;;4175597;28;20036;-45
2021/05/27 06:14:11;;;;;;;0.00;0.00;;;19.00;75.00;;;;;;4174900;28;19921;-45
2021/05/27 06:16:32;;;;;;;0.00;0.00;;;18.90;75.50;;;;;;4172742;28;20057;-45
2021/05/27 06:18:54;;;;;;;0.47;0.38;;;18.80;75.60;;;;;;4171997;28;20045;-48
2021/05/27 06:21:23;;;;;;;0.00;0.00;;;18.70;75.90;;;;;;4166368;28;20057;-45
2021/05/27 06:23:46;;;;;;;3.00;0.55;;;18.60;76.50;;;;;;4154041;28;20436;-45
2021/05/27 06:26:08;;;;;;;0.00;0.00;;;18.50;77.00;;;;;;4167988;28;20134;-46
2021/05/27 06:28:29;;;;;;;0.00;0.00;;;18.30;77.30;;;;;;4162352;28;20049;-45
2021/05/27 06:30:51;;;;;;;0.00;0.00;;;18.20;77.90;;;;;;4173685;28;20056;-45
2021/05/27 06:33:13;;;;;;;0.00;0.00;;;18.10;78.30;;;;;;4173928;28;20506;-45
2021/05/27 06:35:34;;;;;;;0.00;0.00;;;17.90;78.80;;;;;;4156895;28;20068;-46
2021/05/27 06:37:59;;;;;;;0.00;0.00;;;17.90;79.40;;;;;;4159051;28;20056;-45
2021/05/27 06:40:23;;;;;;;0.00;0.00;;;17.80;79.50;;;;;;4172029;28;20408;-51
2021/05/27 06:42:44;;;;;;;0.00;0.00;;;17.70;79.90;;;;;;4171421;28;20068;-45
2021/05/27 06:45:08;;;;;;;0.00;0.00;;;17.60;80.20;;;;;;4173977;28;21426;-44
2021/05/27 06:47:29;;;;;;;0.00;0.00;;;17.60;80.60;;;;;;4174704;28;20136;-47
2021/05/27 06:49:51;;;;;;;1.35;1.25;;;17.50;80.80;;;;;;4174714;28;20415;-47
2021/05/27 06:52:12;;;;;;;0.20;0.20;;;17.40;81.50;;;;;;4174559;28;20044;-46
2021/05/27 06:54:36;;;;;;;0.00;0.00;;;17.40;81.70;;;;;;4161916;28;20045;-45
2021/05/27 06:56:58;;;;;;;0.50;0.50;;;17.50;81.80;;;;;;4167759;28;20059;-46
2021/05/27 06:59:20;;;;;;;1.15;1.05;;;17.60;82.00;;;;;;4174319;28;20160;-47
2021/05/27 07:01:42;;;;;;;1.13;1.08;;;17.80;83.10;;;;;;4174072;28;20466;-45
2021/05/27 07:04:04;;;;;;;0.73;0.73;;;17.90;83.50;;;;;;4174267;28;20049;-45
2021/05/27 07:06:26;;;;;;;0.80;0.70;;;18.00;83.40;;;;;;4168863;28;20140;-45
2021/05/27 07:08:48;;;;;;;1.50;0.93;;;18.00;83.10;;;;;;4174159;28;20505;-47
2021/05/27 07:11:10;;;;;;;5.25;2.85;;;18.10;82.70;;;;;;4174540;28;20059;-49
2021/05/27 07:13:32;;;;;;;0.95;0.95;;;18.20;82.40;;;;;;4170166;28;20055;-46
2021/05/27 07:15:53;;;;;;;1.75;0.75;;;18.30;82.30;;;;;;4174307;28;20045;-48
2021/05/27 07:18:15;;;;;;;0.10;0.10;;;18.40;81.30;;;;;;4174659;28;20624;-46
2021/05/27 07:20:37;;;;;;;0.55;0.55;;;18.50;80.90;;;;;;4172235;28;20492;-45
2021/05/27 07:22:59;;;;;;;2.08;1.88;;;18.50;80.60;;;;;;4174495;28;20049;-49
2021/05/27 07:25:23;;;;;;;0.10;0.10;;;18.50;80.30;;;;;;4157955;28;20045;-49
2021/05/27 07:27:48;;;;;;;0.85;0.85;;;18.50;80.10;;;;;;4158059;28;20484;-49
2021/05/27 07:30:11;;;;;;;0.40;0.40;;;18.50;80.00;;;;;;4158160;28;20526;-50
2021/05/27 07:32:33;;;;;;;7.75;1.05;;;18.50;79.90;;;;;;4159735;28;20057;-49
2021/05/27 07:34:55;;;;;;;0.15;0.15;;;18.40;80.00;;;;;;4159537;28;20056;-49
2021/05/27 07:37:17;;;;;;;0.10;0.10;;;18.50;79.90;;;;;;4175063;28;20053;-49
2021/05/27 07:39:39;;;;;;;43.53;2.42;;;18.50;79.30;;;;;;4177793;28;20132;-48
2021/05/27 07:42:01;;;;;;;0.10;0.10;;;18.50;79.20;;;;;;4177664;28;20151;-47
2021/05/27 07:44:24;;;;;;;1.40;1.23;;;18.60;79.00;;;;;;4177115;28;20053;-46
2021/05/27 07:46:45;;;;;;;0.00;0.00;;;18.60;78.90;;;;;;4177623;28;20383;-47
2021/05/27 07:49:07;;;;;;;4.05;1.95;;;18.60;79.40;;;;;;4177470;28;20053;-46
2021/05/27 07:51:29;;;;;;;1.17;0.68;;;18.50;79.40;;;;;;4177458;28;20049;-53
2021/05/27 07:53:51;;;;;;;0.88;0.88;;;18.50;79.30;;;;;;4176512;28;20045;-46
2021/05/27 07:56:13;;;;;;;0.00;0.00;;;18.50;79.50;;;;;;4177475;28;20487;-48
2021/05/27 07:58:36;;;;;;;1.48;1.25;;;18.50;79.60;;;;;;4166069;28;20046;-46
2021/05/27 08:00:58;;;;;;;6.65;0.95;;;18.50;80.30;;;;;;4160789;28;20132;-49
2021/05/27 08:03:20;;;;;;;1.02;0.73;;;18.60;79.00;;;;;;4161637;28;20041;-45
2021/05/27 08:05:44;;;;;;;0.20;0.20;;;18.60;79.90;;;;;;4160864;28;20104;-45
2021/05/27 08:08:06;;;;;;;0.15;0.15;;;18.60;78.60;;;;;;4160892;28;20109;-45
2021/05/27 08:10:28;;;;;;;2.13;1.95;;;18.60;78.50;;;;;;4160440;28;20045;-47
2021/05/27 08:12:52;;;;;;;7.78;1.35;;;18.50;78.40;;;;;;4165576;28;20052;-45
2021/05/27 08:15:14;;;;;;;4.57;1.00;;;18.50;78.60;;;;;;4171950;28;20053;-47
2021/05/27 08:17:37;;;;;;;0.00;0.00;;;18.40;79.00;;;;;;4160495;28;20091;-48
2021/05/27 08:19:59;;;;;;;7.97;1.58;;;18.30;79.30;;;;;;4160534;28;20435;-47
2021/05/27 08:22:21;;;;;;;4.00;2.63;;;18.20;79.40;;;;;;4160896;28;20050;-48
2021/05/27 08:24:42;;;;;;;1.80;1.65;;;18.20;79.90;;;;;;4160527;28;20048;-52
2021/05/27 08:27:05;;;;;;;0.20;0.20;;;18.10;80.20;;;;;;4176164;28;20056;-49
2021/05/27 08:29:27;;;;;;;1.50;0.45;;;18.00;80.50;;;;;;4175256;28;20407;-46
2021/05/27 08:31:48;;;;;;;0.45;0.45;;;17.90;80.90;;;;;;4164163;28;20064;-47
2021/05/27 08:34:11;;;;;;;0.45;0.43;;;17.80;81.10;;;;;;4161886;28;20561;-48
2021/05/27 08:36:33;;;;;;;0.40;0.40;;;17.80;81.50;;;;;;4160341;28;20461;-48
2021/05/27 08:38:55;;;;;;;0.25;0.25;;;17.70;81.60;;;;;;4160291;28;20042;-46
2021/05/27 08:41:20;;;;;;;0.00;0.00;;;17.70;81.90;;;;;;4173569;28;20487;-49
2021/05/27 08:43:42;;;;;;;0.00;0.00;;;17.60;82.00;;;;;;4174077;28;20049;-48
2021/05/27 08:46:06;;;;;;;2.22;0.50;;;17.60;82.10;;;;;;4176560;28;20126;-50
2021/05/27 08:48:27;;;;;;;0.50;0.50;;;17.60;82.50;;;;;;4175102;28;20045;-45
2021/05/27 08:50:51;;;;;;;0.15;0.15;;;17.40;82.70;;;;;;4174675;28;20060;-46
2021/05/27 08:53:14;;;;;;;1.65;1.55;;;17.40;82.90;;;;;;4175874;28;20056;-46
2021/05/27 08:55:37;;;;;;;0.00;0.00;;;17.30;83.10;;;;;;4174971;28;20136;-45
2021/05/27 08:57:58;;;;;;;0.65;0.57;;;17.30;83.40;;;;;;4160989;28;20045;-46
2021/05/27 09:00:21;;;;;;;24.02;0.85;;;17.20;83.50;;;;;;4159559;28;20049;-46
2021/05/27 09:02:53;;;;;;;0.00;0.00;;;17.10;83.70;;;;;;4161917;28;20053;-47
2021/05/27 09:05:16;;;;;;;0.70;0.70;;;17.10;84.00;;;;;;4181374;28;20048;-49
2021/05/27 09:07:42;;;;;;;0.00;0.00;;;17.10;84.80;;;;;;4176326;28;20049;-46
2021/05/27 09:10:05;;;;;;;0.30;0.30;;;17.10;84.70;;;;;;4175899;28;20075;-48
2021/05/27 09:12:30;;;;;;;0.43;0.43;;;17.20;84.60;;;;;;4163092;28;20048;-47
2021/05/27 09:14:51;;;;;;;0.00;0.00;;;17.30;83.70;;;;;;4174531;28;20045;-44
2021/05/27 09:17:13;;;;;;;0.00;0.00;;;17.40;83.30;;;;;;4176223;28;20483;-46
2021/05/27 09:19:35;;;;;;;0.10;0.10;;;17.50;83.00;;;;;;4164762;28;20150;-44
2021/05/27 09:21:58;;;;;;;0.00;0.00;;;17.50;82.60;;;;;;4160901;28;20042;-44
2021/05/27 09:24:47;;;;;;;0.00;0.00;;;17.50;82.50;;;;;;4167203;28;20079;-48
2021/05/27 09:27:09;;;;;;;0.15;0.15;;;17.50;82.50;;;;;;4144954;28;20045;-48
2021/05/27 09:29:43;;;;;;;0.00;0.00;;;17.50;82.70;;;;;;4158308;28;20045;-50
2021/05/27 09:32:06;;;;;;;0.00;0.00;;;17.50;82.50;;;;;;4158791;28;20056;-46
2021/05/27 09:34:44;;;;;;;0.05;0.05;;;17.50;82.80;;;;;;4144338;28;20424;-47
2021/05/27 09:37:06;;;;;;;0.10;0.10;;;17.50;82.70;;;;;;4144151;28;20563;-50
2021/05/27 09:39:39;;;;;;;0.00;0.00;;;17.60;82.10;;;;;;4169714;28;20053;-46
2021/05/27 09:42:03;;;;;;;0.00;0.00;;;17.70;81.60;;;;;;4174674;28;20045;-48
2021/05/27 09:44:27;;;;;;;0.47;0.47;;;17.80;81.30;;;;;;4158414;28;20051;-44
2021/05/27 09:46:52;;;;;;;0.00;0.00;;;17.80;81.10;;;;;;4171704;28;20491;-47
2021/05/27 09:49:14;;;;;;;1.30;1.20;;;17.80;81.00;;;;;;4171315;28;20072;-48
2021/05/27 09:51:37;;;;;;;0.10;0.10;;;17.80;81.20;;;;;;4169402;28;20053;-47
2021/05/27 09:53:59;;;;;;;0.00;0.00;;;17.70;81.30;;;;;;4170448;28;20053;-47
2021/05/27 09:56:33;;;;;;;0.00;0.00;;;17.70;81.20;;;;;;4158901;28;20676;-46
2021/05/27 09:59:00;;;;;;;0.20;0.20;;;17.70;81.50;;;;;;4159892;28;20049;-46
2021/05/27 10:01:21;;;;;;;1.10;1.10;;;17.70;81.50;;;;;;4165095;28;20135;-49
2021/05/27 10:03:44;;;;;;;0.13;0.13;;;17.60;81.80;;;;;;4170641;28;20057;-45
2021/05/27 10:06:08;;;;;;;0.32;0.32;;;17.50;81.80;;;;;;4158902;28;20096;-46
2021/05/27 10:08:30;;;;;;;0.00;0.00;;;17.50;81.90;;;;;;4159017;28;20500;-48
2021/05/27 10:11:02;;;;;;;0.45;0.43;;;17.40;81.90;;;;;;4158780;28;20057;-48
2021/05/27 10:13:27;;;;;;;0.22;0.22;;;17.40;82.30;;;;;;4170091;28;20131;-47
2021/05/27 10:15:49;;;;;;;0.00;0.00;;;17.30;82.70;;;;;;4175019;28;20475;-46
2021/05/27 10:18:14;;;;;;;0.00;0.00;;;17.30;82.70;;;;;;4175259;28;20494;-47
2021/05/27 10:20:36;;;;;;;0.00;0.00;;;17.30;83.00;;;;;;4172665;28;20488;-50
2021/05/27 10:22:57;;;;;;;;;;;17.20;83.00;;;;;;4162493;28;20048;-49
2021/05/27 10:25:19;;;;;;;0.00;0.00;;;17.20;83.10;;;;;;4173600;28;19947;-51
2021/05/27 10:27:42;;;;;;;0.00;0.00;;;17.20;83.30;;;;;;4169934;28;20055;-51
2021/05/27 10:30:07;;;;;;;0.10;0.10;;;17.10;83.70;;;;;;4173060;28;20116;-48
2021/05/27 10:32:29;;;;;;;0.00;0.00;;;17.00;83.80;;;;;;4161443;28;20136;-47
2021/05/27 10:34:52;;;;;;;0.15;0.15;;;16.90;84.00;;;;;;4173578;28;20057;-49
2021/05/27 10:37:37;;;;;;;0.90;0.90;;;16.90;84.30;;;;;;4169498;28;20095;-47
2021/05/27 10:40:00;;;;;;;0.85;0.85;;;16.90;84.50;;;;;;4159295;28;20049;-47
2021/05/27 10:42:22;;;;;;;0.05;0.05;;;16.90;84.90;;;;;;4146677;28;20057;-48
2021/05/27 10:45:09;;;;;;;0.00;0.00;;;17.10;84.30;;;;;;4174786;28;20084;-47
2021/05/27 10:47:31;;;;;;;0.13;0.13;;;17.30;83.40;;;;;;4173971;28;20052;-49
2021/05/27 10:49:56;;;;;;;0.08;0.08;;;17.50;83.60;;;;;;4142021;28;20049;-49
2021/05/27 10:52:42;;;;;;;13.27;1.15;;;17.50;82.30;;;;;;4143232;28;20081;-48
2021/05/27 10:55:39;;;;;;;0.20;0.20;;;17.60;82.10;;;;;;4157996;28;20056;-49
2021/05/27 10:58:01;;;;;;;0.13;0.13;;;17.70;82.10;;;;;;4151048;28;20053;-48
2021/05/27 11:00:53;;;;;;;0.32;0.32;;;17.70;82.10;;;;;;4174759;28;20484;-48
2021/05/27 11:03:40;;;;;;;2.20;2.08;;;17.60;82.10;;;;;;4174094;28;20045;-46
2021/05/27 11:06:18;;;;;;;0.10;0.10;;;17.60;82.60;;;;;;4169278;28;20081;-48
2021/05/27 11:08:40;;;;;;;0.05;0.05;;;17.50;82.70;;;;;;4157982;28;20049;-48
2021/05/27 11:11:34;;;;;;;0.20;0.20;;;17.50;82.80;;;;;;4164846;28;20057;-48
2021/05/27 11:14:15;;;;;;;0.03;0.03;;;17.40;82.90;;;;;;4170226;28;20045;-47
2021/05/27 11:17:18;;;;;;;0.32;0.32;;;17.40;83.00;;;;;;4158202;28;20045;-47
2021/05/27 11:19:47;;;;;;;0.20;0.20;;;17.40;83.20;;;;;;4158191;28;20114;-47
2021/05/27 11:22:52;;;;;;;0.25;0.25;;;17.30;83.30;;;;;;4157871;28;20076;-47
2021/05/27 11:25:33;;;;;;;0.15;0.13;;;17.40;83.70;;;;;;4158124;28;20132;-49
2021/05/27 11:27:58;;;;;;;0.20;0.20;;;17.50;82.80;;;;;;4161417;28;20056;-47
2021/05/27 11:30:22;;;;;;;0.38;0.38;;;17.70;82.00;;;;;;4158570;28;20077;-47
2021/05/27 11:32:44;;;;;;;0.15;0.15;;;17.80;81.50;;;;;;4171723;28;20048;-47
2021/05/27 11:35:07;;;;;;;0.55;0.55;;;17.90;81.00;;;;;;4156533;28;20045;-46
2021/05/27 11:37:34;;;;;;;7.95;2.03;;;18.00;80.80;;;;;;4156525;28;20056;-48
2021/05/27 11:39:56;;;;;;;0.65;0.65;;;18.00;80.50;;;;;;4157594;28;20123;-47
2021/05/27 11:42:21;;;;;;;0.82;0.82;;;18.00;80.10;;;;;;4157631;28;20049;-47
2021/05/27 11:44:55;;;;;;;2.38;2.17;;;18.00;80.10;;;;;;4157236;28;20068;-46
2021/05/27 11:47:17;;;;;;;0.00;0.00;;;17.90;80.20;;;;;;4171397;28;20056;-49
2021/05/27 11:50:01;;;;;;;0.00;0.00;;;17.90;80.30;;;;;;4172812;28;20044;-52
2021/05/27 11:52:23;;;;;;;0.45;0.25;;;17.90;80.50;;;;;;4146284;28;20518;-46
2021/05/27 11:54:44;;;;;;;0.00;0.00;;;17.80;80.60;;;;;;4157603;28;20057;-50
2021/05/27 11:57:06;;;;;;;0.05;0.05;;;17.80;81.00;;;;;;4157411;28;20080;-51
2021/05/27 11:59:28;;;;;;;0.03;0.03;;;17.70;81.00;;;;;;4152508;28;20127;-52
2021/05/27 12:01:54;;;;;;;0.00;0.00;;;17.70;81.30;;;;;;4169033;28;20396;-48
2021/05/27 12:04:19;;;;;;;0.00;0.00;;;17.60;81.40;;;;;;4157851;28;20677;-50
2021/05/27 12:06:53;;;;;;;0.50;0.50;;;17.60;81.70;;;;;;4161443;28;20050;-49
2021/05/27 12:09:22;;;;;;;0.08;0.08;;;17.60;81.80;;;;;;4161350;28;20119;-53
2021/05/27 12:11:44;;;;;;;0.00;0.00;;;17.60;81.80;;;;;;4160222;28;20083;-47
2021/05/27 12:14:06;;;;;;;;;;;17.50;81.70;;;;;;4158091;28;20059;-47
2021/05/27 12:16:32;;;;;;;0.00;0.00;;;17.50;81.80;;;;;;4158185;28;20343;-48
2021/05/27 12:19:00;;;;;;;0.30;0.30;;;17.40;81.90;;;;;;4157870;28;20056;-48
2021/05/27 12:21:22;;;;;;;4.05;0.65;;;17.40;82.00;;;;;;4157796;28;20057;-47
2021/05/27 12:23:45;;;;;;;0.00;0.00;;;17.30;81.90;;;;;;4174078;28;20056;-48
2021/05/27 12:26:06;;;;;;;0.10;0.10;;;17.30;82.10;;;;;;4176714;28;20041;-48
2021/05/27 12:28:28;;;;;;;1.75;0.98;;;17.30;81.90;;;;;;4174836;28;20182;-47
2021/05/27 12:30:56;;;;;;;0.38;0.38;;;17.30;81.90;;;;;;4168608;28;20048;-48
2021/05/27 12:33:20;;;;;;;1.33;0.35;;;17.20;82.00;;;;;;4176956;28;20053;-50
2021/05/27 12:35:42;;;;;;;0.00;0.00;;;17.20;82.00;;;;;;4176392;28;20049;-51
2021/05/27 12:38:05;;;;;;;0.00;0.00;;;17.20;82.20;;;;;;4176366;28;20055;-50
2021/05/27 12:40:32;;;;;;;0.65;0.65;;;17.20;83.00;;;;;;4176474;28;20117;-52